createdAt,value
2018-01-15T00:02:43.016Z,-0.5
2018-01-15T00:07:43.065Z,-0.5
2018-01-15T00:12:42.985Z,-0.5
2018-01-15T00:17:43.068Z,-0.5
2018-01-15T00:22:43.054Z,-0.5
2018-01-15T00:27:43.201Z,-0.5
2018-01-15T00:32:43.013Z,-0.5
2018-01-15T00:37:43.057Z,-0.5
2018-01-15T00:42:43.089Z,-0.5
2018-01-15T00:47:53.002Z,-0.4
2018-01-15T00:52:43.030Z,-0.4
2018-01-15T00:57:43.096Z,-0.5
2018-01-15T01:02:42.941Z,-0.6
2018-01-15T01:07:43.023Z,-0.5
2018-01-15T01:12:43.059Z,-0.5
2018-01-15T01:17:42.964Z,-0.5
2018-01-15T01:22:43.134Z,-0.6
2018-01-15T01:27:43.035Z,-0.5
2018-01-15T01:32:43.077Z,-0.5
2018-01-15T01:37:42.952Z,-0.6
2018-01-15T01:42:42.944Z,-0.5
2018-01-15T01:47:42.975Z,-0.6
2018-01-15T01:52:43.098Z,-0.6
2018-01-15T01:57:43.129Z,-0.6
2018-01-15T02:02:43.154Z,-0.6
2018-01-15T02:07:43.080Z,-0.7
2018-01-15T02:12:42.956Z,-0.7
2018-01-15T02:17:43.148Z,-0.7
2018-01-15T02:22:43.059Z,-0.7
2018-01-15T02:27:42.978Z,-0.7
2018-01-15T02:32:43.050Z,-0.7
2018-01-15T02:37:43.168Z,-0.7
2018-01-15T02:42:43.089Z,-0.7
2018-01-15T02:47:42.997Z,-0.7
2018-01-15T02:52:43.164Z,-0.7
2018-01-15T02:57:43.060Z,-0.6
2018-01-15T03:02:43.110Z,-0.6
2018-01-15T03:07:53.115Z,-0.7
2018-01-15T03:12:42.982Z,-0.7
2018-01-15T03:17:43.102Z,-0.6
2018-01-15T03:22:43.130Z,-0.7
2018-01-15T03:27:43.162Z,-0.7
2018-01-15T03:32:43.018Z,-0.8
2018-01-15T03:37:43.121Z,-0.8
2018-01-15T03:42:43.147Z,-1
2018-01-15T03:47:43.119Z,-0.9
2018-01-15T03:52:43.010Z,-1
2018-01-15T03:57:43.141Z,-0.9
2018-01-15T04:02:43.153Z,-0.9
2018-01-15T04:07:43.196Z,-0.9
2018-01-15T04:12:43.131Z,-0.9
2018-01-15T04:17:43.151Z,-0.9
2018-01-15T04:22:43.189Z,-0.8
2018-01-15T04:27:43.223Z,-0.8
2018-01-15T04:32:43.141Z,-0.9
2018-01-15T04:37:43.177Z,-0.9
2018-01-15T04:42:43.231Z,-0.9
2018-01-15T04:47:43.070Z,-0.9
2018-01-15T04:52:43.048Z,-1
2018-01-15T04:57:43.124Z,-1
2018-01-15T05:02:43.052Z,-1
2018-01-15T05:07:43.047Z,-1
2018-01-15T05:12:43.076Z,-1
2018-01-15T05:17:43.126Z,-1
2018-01-15T05:22:43.065Z,-1
2018-01-15T05:27:43.064Z,-1
2018-01-15T05:32:43.124Z,-1
2018-01-15T05:37:43.104Z,-1.2
2018-01-15T05:42:43.283Z,-1.3
2018-01-15T05:47:43.082Z,-1.3
2018-01-15T05:52:43.082Z,-1.3
2018-01-15T05:57:43.255Z,-1.3
2018-01-15T06:02:43.176Z,-1.3
2018-01-15T06:07:43.083Z,-1.4
2018-01-15T06:12:43.256Z,-1.4
2018-01-15T06:17:43.114Z,-1.5
2018-01-15T06:22:43.260Z,-1.5
2018-01-15T06:27:43.245Z,-1.5
2018-01-15T06:32:43.289Z,-1.5
2018-01-15T06:37:43.194Z,-1.5
2018-01-15T06:42:43.102Z,-1.6
2018-01-15T06:47:43.099Z,-1.7
2018-01-15T06:52:43.286Z,-1.7
2018-01-15T06:57:43.320Z,-1.6
2018-01-15T07:02:43.116Z,-1.6
2018-01-15T07:07:43.276Z,-1.7
2018-01-15T07:12:43.130Z,-1.5
2018-01-15T07:17:43.220Z,-1.5
2018-01-15T07:22:43.277Z,-1.5
2018-01-15T07:27:43.228Z,-1.4
2018-01-15T07:32:43.213Z,-1.6
2018-01-15T07:37:43.340Z,-1.3
2018-01-15T07:42:43.143Z,-1.4
2018-01-15T07:47:43.323Z,-1.4
2018-01-15T07:52:43.155Z,-1.3
2018-01-15T07:57:43.267Z,-1.3
2018-01-15T08:02:43.321Z,-1.4
2018-01-15T08:07:43.329Z,-1.3
2018-01-15T08:12:43.258Z,-1.2
2018-01-15T08:17:43.293Z,-1.1
2018-01-15T08:22:43.321Z,-1
2018-01-15T08:27:43.335Z,-0.9
2018-01-15T08:32:43.181Z,-0.9
2018-01-15T08:37:43.164Z,-0.9
2018-01-15T08:42:43.344Z,-0.9
2018-01-15T08:52:43.177Z,-1
2018-01-15T08:57:43.186Z,-0.9
2018-01-15T09:02:43.425Z,-0.8
2018-01-15T09:07:43.276Z,-0.8
2018-01-15T09:12:43.336Z,-0.7
2018-01-15T09:17:43.375Z,-0.7
2018-01-15T09:22:43.499Z,-0.6
2018-01-15T09:27:43.319Z,-0.6
2018-01-15T09:32:43.208Z,-0.7
2018-01-15T09:37:43.377Z,-0.8
2018-01-15T09:42:43.281Z,-0.7
2018-01-15T09:47:43.338Z,-0.8
2018-01-15T09:52:43.208Z,-0.7
2018-01-15T09:57:43.403Z,-0.7
2018-01-15T10:02:43.212Z,-0.6
2018-01-15T10:07:43.219Z,-0.6
2018-01-15T10:12:44.320Z,-0.5
2018-01-15T10:17:43.223Z,-0.6
2018-01-15T10:22:44.296Z,-0.7
2018-01-15T10:27:44.146Z,-0.7
2018-01-15T10:32:43.474Z,-0.7
2018-01-15T10:37:43.469Z,-0.5
2018-01-15T10:42:43.515Z,-0.5
2018-01-15T10:47:43.437Z,-0.5
2018-01-15T10:52:43.447Z,-0.5
2018-01-15T10:57:43.642Z,-0.4
2018-01-15T11:02:44.196Z,-0.4
2018-01-15T11:07:45.455Z,-0.3
2018-01-15T11:12:44.375Z,-0.3
2018-01-15T11:17:44.278Z,-0.2
2018-01-15T11:22:44.340Z,-0.1
2018-01-15T11:27:44.195Z,-0.2
2018-01-15T11:32:44.377Z,0
2018-01-15T11:37:44.412Z,0
2018-01-15T11:42:54.317Z,0
2018-01-15T11:47:44.284Z,0
2018-01-15T11:52:44.404Z,0
2018-01-15T11:57:44.420Z,-0.1
2018-01-15T12:02:44.359Z,0
2018-01-15T12:07:44.387Z,0.1
2018-01-15T12:12:44.412Z,0
2018-01-15T12:17:44.334Z,0
2018-01-15T12:22:44.370Z,-0.1
2018-01-15T12:27:44.396Z,0
2018-01-15T12:32:44.320Z,0
2018-01-15T12:37:44.242Z,0
2018-01-15T12:42:44.492Z,0.1
2018-01-15T12:47:44.362Z,0.2
2018-01-15T12:52:44.340Z,0.2
2018-01-15T12:57:44.397Z,0.1
2018-01-15T13:02:44.356Z,0.2
2018-01-15T13:07:44.450Z,0.1
2018-01-15T13:12:44.360Z,0
2018-01-15T13:17:44.266Z,0.1
2018-01-15T13:22:44.462Z,0.1
2018-01-15T13:27:44.260Z,0.1
2018-01-15T13:32:44.488Z,0.2
2018-01-15T13:37:44.394Z,0.2
2018-01-15T13:42:44.462Z,0.2
2018-01-15T13:47:44.376Z,0.1
2018-01-15T13:52:44.275Z,0.1
2018-01-15T13:57:44.436Z,0.1
2018-01-15T14:02:44.469Z,0.1
2018-01-15T14:07:44.394Z,0.1
2018-01-15T14:12:44.292Z,0
2018-01-15T14:17:44.455Z,0.1
2018-01-15T14:22:44.371Z,0.1
2018-01-15T14:27:44.423Z,0.1
2018-01-15T14:32:44.565Z,0
2018-01-15T14:37:44.482Z,0
2018-01-15T14:42:44.405Z,0
2018-01-15T14:47:44.381Z,0.1
2018-01-15T14:52:44.538Z,0.1
2018-01-15T14:57:44.458Z,0
2018-01-15T15:02:44.470Z,0
2018-01-15T15:07:44.502Z,0
2018-01-15T15:12:44.502Z,0
2018-01-15T15:17:44.591Z,0
2018-01-15T15:22:44.525Z,0
2018-01-15T15:27:44.552Z,0
2018-01-15T15:32:44.398Z,-0.1
2018-01-15T15:37:44.458Z,-0.1
2018-01-15T15:42:44.456Z,-0.2
2018-01-15T15:47:44.416Z,-0.2
2018-01-15T15:52:44.845Z,-0.3
2018-01-15T15:57:44.421Z,-0.4
2018-01-15T16:02:44.450Z,-0.4
2018-01-15T16:07:45.051Z,-0.5
2018-01-15T16:12:44.607Z,-0.5
2018-01-15T16:17:44.556Z,-0.6
2018-01-15T16:22:44.483Z,-0.6
2018-01-15T16:27:45.269Z,-0.7
2018-01-15T16:32:45.784Z,-0.7
2018-01-15T16:37:44.466Z,-0.8
2018-01-15T16:42:45.055Z,-0.8
2018-01-15T16:47:44.863Z,-0.9
2018-01-15T16:52:44.793Z,-0.9
2018-01-15T16:57:45.020Z,-0.9
2018-01-15T17:02:44.596Z,-0.9
2018-01-15T17:07:44.492Z,-1
2018-01-15T17:12:44.630Z,-1
2018-01-15T17:17:44.521Z,-1
2018-01-15T17:22:44.483Z,-1.2
2018-01-15T17:27:44.547Z,-1.2
2018-01-15T17:32:44.765Z,-1.2
2018-01-15T17:37:44.486Z,-1.2
2018-01-15T17:42:45.921Z,-1.2
2018-01-15T17:47:44.509Z,-1.3
2018-01-15T17:52:45.714Z,-1.3
2018-01-15T17:57:44.537Z,-1.4
2018-01-15T18:02:44.503Z,-1.4
2018-01-15T18:07:44.582Z,-1.4
2018-01-15T18:12:44.554Z,-1.4
2018-01-15T18:17:44.608Z,-1.4
2018-01-15T18:22:44.717Z,-1.4
2018-01-15T18:27:44.660Z,-1.4
2018-01-15T18:32:44.548Z,-1.4
2018-01-15T18:37:44.541Z,-1.5
2018-01-15T18:42:44.523Z,-1.5
2018-01-15T18:47:44.755Z,-1.6
2018-01-15T18:52:44.702Z,-1.6
2018-01-15T18:57:44.705Z,-1.6
2018-01-15T19:02:44.759Z,-1.6
2018-01-15T19:07:44.654Z,-1.6
2018-01-15T19:12:44.715Z,-1.7
2018-01-15T19:17:44.927Z,-1.7
2018-01-15T19:22:44.690Z,-1.7
2018-01-15T19:27:44.563Z,-1.7
2018-01-15T19:32:44.563Z,-1.7
2018-01-15T19:37:44.540Z,-1.7
2018-01-15T19:42:44.566Z,-1.7
2018-01-15T19:47:44.669Z,-1.7
2018-01-15T19:52:44.619Z,-1.7
2018-01-15T19:57:44.758Z,-1.7
2018-01-15T20:02:44.615Z,-1.8
2018-01-15T20:07:44.758Z,-1.7
2018-01-15T20:12:44.704Z,-1.7
2018-01-15T20:17:44.678Z,-1.6
2018-01-15T20:22:44.731Z,-1.6
2018-01-15T20:27:44.742Z,-1.7
2018-01-15T20:32:44.804Z,-1.8
2018-01-15T20:37:45.035Z,-1.8
2018-01-15T20:42:45.668Z,-1.8
2018-01-15T20:47:44.786Z,-1.8
2018-01-15T20:52:45.322Z,-1.9
2018-01-15T20:57:44.997Z,-1.9
2018-01-15T21:02:45.966Z,-1.9
2018-01-15T21:07:45.106Z,-1.9
2018-01-15T21:12:44.597Z,-1.9
2018-01-15T21:17:44.634Z,-2
2018-01-15T21:22:44.641Z,-1.9
2018-01-15T21:27:44.805Z,-1.9
2018-01-15T21:32:45.536Z,-1.9
2018-01-15T21:37:44.722Z,-1.9
2018-01-15T21:42:44.663Z,-1.9
2018-01-15T21:47:44.634Z,-1.9
2018-01-15T21:52:44.793Z,-1.9
2018-01-15T21:57:44.790Z,-1.9
2018-01-15T22:02:44.611Z,-1.9
2018-01-15T22:07:44.615Z,-1.9
2018-01-15T22:12:44.683Z,-1.8
2018-01-15T22:17:44.796Z,-1.8
2018-01-15T22:22:44.836Z,-1.8
2018-01-15T22:27:44.792Z,-1.8
2018-01-15T22:32:44.706Z,-1.8
2018-01-15T22:37:44.752Z,-1.7
2018-01-15T22:42:44.932Z,-1.7
2018-01-15T22:47:44.844Z,-1.7
2018-01-15T22:52:44.648Z,-1.6
2018-01-15T22:57:44.821Z,-1.6
2018-01-15T23:02:44.644Z,-1.6
2018-01-15T23:07:44.788Z,-1.6
2018-01-15T23:12:44.820Z,-1.6
2018-01-15T23:17:44.688Z,-1.6
2018-01-15T23:22:44.860Z,-1.6
2018-01-15T23:27:44.668Z,-1.6
2018-01-15T23:32:44.673Z,-1.5
2018-01-15T23:37:46.337Z,-1.5
2018-01-15T23:42:45.734Z,-1.4
2018-01-15T23:47:44.671Z,-1.5
2018-01-15T23:52:45.187Z,-1.5
2018-01-15T23:57:44.988Z,-1.5
